Time;durP1;ratioP1;P1;durP2;ratioP2;P2;SDS_P1;SDS_P2;PMS_P1;PMS_P2;Temp;Humidity;BMP_temperature;BMP_pressure;BME280_temperature;BME280_humidity;BME280_pressure;Samples;Min_cycle;Max_cycle;Signal;HPM_P1;HPM_P2
2023/10/16 00:04:26;;;;;;;7.20;3.00;;;;;;;8.99;62.41;99146.59;233809;219;137217;-63
2023/10/16 00:09:32;;;;;;;6.80;3.30;;;;;;;8.97;62.63;99152.02;234283;217;143626;-61
2023/10/16 00:14:37;;;;;;;6.70;3.10;;;;;;;8.93;62.68;99145.83;234272;216;138903;-63
2023/10/16 00:19:44;;;;;;;8.80;3.20;;;;;;;8.87;62.72;99144.08;234251;217;136920;-63
2023/10/16 00:24:47;;;;;;;7.30;3.20;;;;;;;8.78;63.00;99145.63;234311;217;143782;-62
2023/10/16 00:29:50;;;;;;;6.00;3.10;;;;;;;8.76;63.06;99143.41;234241;217;139051;-62
2023/10/16 00:34:53;;;;;;;4.70;2.50;;;;;;;8.73;63.21;99141.60;234382;217;135689;-60
2023/10/16 00:39:56;;;;;;;8.80;3.10;;;;;;;8.70;63.18;99151.48;234254;217;143848;-65
2023/10/16 00:45:00;;;;;;;4.80;2.80;;;;;;;8.70;63.28;99158.60;234247;217;138831;-65
2023/10/16 00:50:05;;;;;;;8.20;3.00;;;;;;;8.69;63.33;99154.89;234260;217;138176;-61
2023/10/16 00:55:11;;;;;;;4.50;2.20;;;;;;;8.68;63.19;99157.27;234127;217;145555;-63
2023/10/16 01:00:14;;;;;;;7.70;2.70;;;;;;;8.64;63.27;99163.27;234161;218;138806;-61
2023/10/16 01:05:23;;;;;;;6.10;2.50;;;;;;;8.60;63.42;99160.35;234327;217;136183;-61
2023/10/16 01:10:28;;;;;;;4.30;2.20;;;;;;;8.58;63.60;99170.70;234168;217;145406;-62
2023/10/16 01:15:31;;;;;;;6.40;2.50;;;;;;;8.55;63.48;99180.39;234098;217;138859;-61
2023/10/16 01:20:35;;;;;;;5.00;2.30;;;;;;;8.55;63.52;99174.74;234147;217;136470;-61
2023/10/16 01:25:37;;;;;;;3.80;1.80;;;;;;;8.55;63.57;99172.09;234079;218;145688;-61
2023/10/16 01:30:45;;;;;;;4.60;2.00;;;;;;;8.55;63.56;99171.74;234051;218;139035;-60
2023/10/16 01:35:52;;;;;;;7.50;2.20;;;;;;;8.55;63.45;99164.15;234159;217;136178;-61
2023/10/16 01:41:09;;;;;;;3.20;1.80;;;;;;;8.57;63.35;99164.38;234237;217;145845;-60
2023/10/16 01:46:16;;;;;;;5.10;1.80;;;;;;;8.55;63.30;99160.78;234179;217;139473;-59
2023/10/16 01:51:19;;;;;;;4.00;1.90;;;;;;;8.54;63.31;99163.63;234210;217;136466;-61
2023/10/16 01:56:22;;;;;;;4.10;1.60;;;;;;;8.58;63.30;99163.27;234244;217;145874;-60
2023/10/16 02:01:26;;;;;;;4.90;1.50;;;;;;;8.64;62.98;99162.10;234179;217;138996;-60
2023/10/16 02:06:30;;;;;;;3.20;1.40;;;;;;;8.66;62.73;99153.66;234282;217;136636;-61
2023/10/16 02:11:33;;;;;;;4.20;1.60;;;;;;;8.67;62.70;99160.82;234310;217;146295;-61
2023/10/16 02:16:37;;;;;;;4.50;1.80;;;;;;;8.71;62.62;99162.93;234269;217;140453;-59
2023/10/16 02:21:40;;;;;;;4.00;1.60;;;;;;;8.69;62.33;99172.23;234216;217;137348;-61
2023/10/16 02:26:56;;;;;;;5.20;1.70;;;;;;;8.64;62.39;99177.45;234253;216;147619;-61
2023/10/16 02:32:03;;;;;;;4.20;1.60;;;;;;;8.65;62.33;99177.07;234224;217;139427;-60
2023/10/16 02:37:09;;;;;;;3.70;1.40;;;;;;;8.63;62.10;99175.77;234254;216;139997;-59
2023/10/16 02:42:14;;;;;;;4.00;1.20;;;;;;;8.62;62.05;99185.17;234236;216;145872;-60
2023/10/16 02:47:26;;;;;;;4.80;1.40;;;;;;;8.58;61.94;99183.41;234398;216;138930;-60
2023/10/16 02:52:30;;;;;;;3.20;1.40;;;;;;;8.58;62.05;99186.46;234288;216;137122;-62
2023/10/16 02:57:35;;;;;;;4.50;1.40;;;;;;;8.55;61.91;99183.21;234221;216;145924;-60
2023/10/16 03:02:39;;;;;;;4.40;1.60;;;;;;;8.53;62.05;99191.11;234229;216;139271;-60
2023/10/16 03:07:44;;;;;;;2.70;1.40;;;;;;;8.56;61.99;99195.41;234263;217;137100;-61
2023/10/16 03:12:56;;;;;;;5.50;1.50;;;;;;;8.56;62.04;99195.23;234300;216;146299;-60
2023/10/16 03:18:00;;;;;;;4.70;1.70;;;;;;;8.58;62.05;99196.86;234245;217;139563;-59
2023/10/16 03:23:07;;;;;;;4.30;1.60;;;;;;;8.61;62.08;99197.39;234395;216;139559;-64
2023/10/16 03:28:13;;;;;;;6.70;1.60;;;;;;;8.61;61.99;99200.06;234247;217;145732;-61
2023/10/16 03:33:17;;;;;;;3.20;1.50;;;;;;;8.59;62.12;99203.34;234190;215;139306;-60
2023/10/16 03:38:24;;;;;;;5.30;1.50;;;;;;;8.59;62.04;99204.28;234292;217;136802;-61
2023/10/16 03:43:28;;;;;;;6.30;1.70;;;;;;;8.52;61.98;99203.70;234225;216;145616;-62
2023/10/16 03:48:32;;;;;;;4.20;1.60;;;;;;;8.54;62.19;99198.85;234199;216;140410;-62
2023/10/16 03:53:35;;;;;;;6.00;1.10;;;;;;;8.57;61.99;99195.49;234358;216;136481;-60
2023/10/16 03:58:43;;;;;;;6.40;1.50;;;;;;;8.58;61.99;99191.92;234219;216;145828;-62
2023/10/16 04:03:47;;;;;;;7.30;1.50;;;;;;;8.62;61.95;99200.73;234202;217;138750;-61
2023/10/16 04:08:55;;;;;;;3.00;1.30;;;;;;;8.65;61.88;99201.79;234277;216;139396;-63
2023/10/16 04:13:59;;;;;;;3.70;1.40;;;;;;;8.66;61.86;99206.35;234300;217;145552;-63
2023/10/16 04:29:29;;;;;;;3.40;1.40;;;;;;;8.85;61.30;99200.60;234330;216;147211;-61
2023/10/16 04:34:32;;;;;;;4.20;1.40;;;;;;;8.83;61.10;99204.93;234254;216;142295;-59
2023/10/16 04:45:24;;;;;;;3.60;1.60;;;;;;;8.89;60.78;99202.84;234277;216;146357;-69
2023/10/16 04:56:16;;;;;;;6.20;1.60;;;;;;;8.95;60.29;99207.86;234320;216;138738;-64
2023/10/16 05:01:33;;;;;;;4.20;1.40;;;;;;;8.91;60.18;99215.30;234291;217;145551;-64
2023/10/16 05:17:21;;;;;;;3.60;1.60;;;;;;;8.91;60.62;99228.58;234337;216;145760;-69
2023/10/16 06:16:20;;;;;;;4.30;1.50;;;;;;;8.93;60.52;99265.83;234242;216;136004;-63
2023/10/16 06:21:25;;;;;;;3.90;1.40;;;;;;;8.92;60.60;99271.33;234175;216;147028;-62
2023/10/16 06:26:28;;;;;;;5.10;1.60;;;;;;;8.94;60.63;99274.95;234159;216;140585;-62
2023/10/16 06:31:49;;;;;;;39.10;26.40;;;;;;;8.93;60.85;99273.60;234160;216;136825;-62
2023/10/16 06:36:52;;;;;;;8.10;3.00;;;;;;;8.94;60.73;99279.60;234145;216;148551;-63
2023/10/16 06:41:55;;;;;;;7.70;2.10;;;;;;;8.96;60.79;99278.42;234156;216;138873;-64
2023/10/16 06:46:59;;;;;;;19.20;10.40;;;;;;;9.02;60.69;99278.45;234351;216;136362;-66
2023/10/16 06:52:04;;;;;;;5.20;2.20;;;;;;;9.03;60.65;99278.92;234134;216;149151;-64
2023/10/16 06:57:11;;;;;;;7.80;2.20;;;;;;;9.06;60.84;99284.10;234073;216;138894;-66
2023/10/16 07:02:19;;;;;;;5.20;2.10;;;;;;;9.11;60.63;99292.13;234215;217;137305;-67
2023/10/16 07:07:23;;;;;;;3.60;1.70;;;;;;;9.12;60.46;99300.20;234202;216;146032;-63
2023/10/16 07:12:26;;;;;;;5.50;1.70;;;;;;;9.13;60.47;99299.83;234169;216;140001;-65
2023/10/16 07:17:29;;;;;;;4.60;1.80;;;;;;;9.15;60.54;99304.16;234261;216;136052;-67
2023/10/16 07:22:33;;;;;;;11.40;1.70;;;;;;;9.21;60.57;99307.73;234158;216;148771;-65
2023/10/16 07:27:36;;;;;;;7.40;2.20;;;;;;;9.24;60.28;99311.80;234065;217;139096;-65
2023/10/16 07:32:42;;;;;;;6.70;2.00;;;;;;;9.20;60.04;99315.38;234302;214;136990;-62
2023/10/16 07:37:52;;;;;;;5.50;1.70;;;;;;;9.22;60.07;99317.43;234157;216;145939;-65
2023/10/16 07:42:55;;;;;;;4.20;1.80;;;;;;;9.23;60.18;99320.00;234161;216;138827;-66
2023/10/16 07:48:17;;;;;;;7.80;3.60;;;;;;;9.21;59.88;99320.64;234251;216;136144;-65
2023/10/16 07:53:28;;;;;;;5.10;2.30;;;;;;;9.11;60.05;99316.56;234261;217;146985;-65
2023/10/16 07:58:34;;;;;;;4.50;1.90;;;;;;;9.06;60.19;99321.45;234106;216;140257;-68
2023/10/16 08:03:37;;;;;;;8.40;2.10;;;;;;;9.01;60.03;99322.58;234224;216;136361;-64
2023/10/16 08:08:42;;;;;;;8.80;2.10;;;;;;;9.01;60.18;99321.70;234209;216;145845;-65
2023/10/16 08:13:47;;;;;;;6.20;2.20;;;;;;;8.97;60.45;99330.39;234218;215;140784;-66
2023/10/16 08:18:52;;;;;;;9.30;3.70;;;;;;;9.00;60.80;99337.27;233887;216;137614;-68
2023/10/16 08:23:57;;;;;;;4.70;2.80;;;;;;;9.00;60.77;99333.20;234277;215;145719;-69
2023/10/16 08:34:21;;;;;;;18.60;8.40;;;;;;;9.10;60.94;99343.70;234096;215;136698;-71
2023/10/16 08:39:24;;;;;;;8.70;2.70;;;;;;;9.19;60.38;99343.74;234171;215;147773;-63
2023/10/16 08:44:31;;;;;;;6.40;2.10;;;;;;;9.27;59.99;99345.34;234173;215;138748;-71
2023/10/16 08:49:35;;;;;;;6.60;2.00;;;;;;;9.31;59.85;99352.70;234166;215;137534;-68
2023/10/16 08:55:00;;;;;;;6.80;2.10;;;;;;;9.31;59.90;99364.79;234207;215;147316;-71
2023/10/16 09:00:10;;;;;;;21.00;10.30;;;;;;;9.29;60.12;99362.05;234364;215;139561;-68
2023/10/16 09:05:16;;;;;;;7.50;2.90;;;;;;;9.39;60.74;99362.94;234430;213;138550;-71
2023/10/16 09:10:21;;;;;;;6.30;2.80;;;;;;;9.44;60.40;99361.96;234228;215;147279;-71
2023/10/16 09:15:25;;;;;;;9.90;2.60;;;;;;;9.43;60.38;99365.36;234238;215;139956;-64
2023/10/16 09:20:40;;;;;;;11.10;2.50;;;;;;;9.46;60.34;99368.06;234225;215;137535;-68
2023/10/16 09:25:45;;;;;;;;;;;;;;;9.47;59.89;99373.45;234163;215;148964;-68
2023/10/16 09:30:49;;;;;;;7.30;2.50;;;;;;;9.45;59.89;99368.08;234257;215;138813;-68
2023/10/16 09:36:17;;;;;;;7.70;2.80;;;;;;;9.42;59.87;99373.77;234200;215;139202;-67
2023/10/16 09:51:46;;;;;;;;;;;;;;;9.44;59.62;99379.45;234169;215;137548;-67
2023/10/16 09:57:16;;;;;;;7.50;2.60;;;;;;;9.45;59.41;99376.25;234231;215;147828;-66
2023/10/16 10:02:35;;;;;;;5.30;2.40;;;;;;;9.47;59.51;99381.82;234215;215;138899;-70
2023/10/16 10:07:49;;;;;;;5.70;2.60;;;;;;;9.50;59.34;99383.96;234080;215;137532;-70
2023/10/16 10:12:56;;;;;;;8.50;2.50;;;;;;;9.53;59.05;99392.49;234121;215;147246;-69
2023/10/16 10:18:31;;;;;;;6.30;2.80;;;;;;;9.46;58.89;99391.41;234113;215;139486;-67
2023/10/16 10:23:26;;;;;;;9.40;2.60;;;;;;;9.46;59.05;99393.38;234252;215;137419;-66
2023/10/16 10:28:32;;;;;;;11.00;3.20;;;;;;;9.45;59.10;99393.80;234051;215;148197;-71
2023/10/16 10:33:51;;;;;;;7.70;3.10;;;;;;;9.45;59.17;99393.60;234180;215;139727;-63
2023/10/16 10:44:44;;;;;;;5.40;2.60;;;;;;;9.41;59.38;99397.52;234168;215;147853;-67
2023/10/16 10:49:50;;;;;;;23.40;11.80;;;;;;;9.38;60.81;99402.64;234200;215;141057;-64
2023/10/16 10:55:06;;;;;;;8.20;3.50;;;;;;;9.38;61.30;99399.27;234212;215;137338;-68
2023/10/16 11:05:22;;;;;;;9.90;3.00;;;;;;;9.45;61.89;99401.53;234383;215;140566;-68
2023/10/16 11:10:26;;;;;;;9.40;2.80;;;;;;;9.57;62.06;99397.23;234094;215;139981;-70
2023/10/16 11:15:30;;;;;;;5.50;2.60;;;;;;;9.72;61.77;99399.61;234052;215;148211;-68
2023/10/16 11:20:36;;;;;;;10.50;3.00;;;;;;;9.87;61.24;99403.46;234129;215;139817;-70
2023/10/16 11:25:44;;;;;;;11.60;4.60;;;;;;;9.88;60.56;99396.65;234210;215;138701;-61
2023/10/16 11:30:49;;;;;;;6.20;2.70;;;;;;;9.92;60.98;99394.32;234257;215;148028;-70
2023/10/16 11:35:58;;;;;;;;;;;;;;;9.98;60.41;99392.23;234276;215;139904;-65
2023/10/16 11:41:16;;;;;;;8.60;2.50;;;;;;;10.01;59.77;99389.38;234330;215;131967;-67
2023/10/16 11:46:39;;;;;;;8.40;3.10;;;;;;;10.06;59.42;99381.88;234204;215;147518;-66
2023/10/16 11:51:48;;;;;;;7.50;2.70;;;;;;;10.10;58.71;99372.41;234256;215;139017;-69
2023/10/16 11:56:53;;;;;;;8.40;2.70;;;;;;;10.16;58.26;99370.48;234175;215;136432;-70
2023/10/16 12:02:11;;;;;;;8.70;2.70;;;;;;;10.17;57.37;99364.89;234238;215;148928;-67
2023/10/16 12:07:16;;;;;;;9.50;3.20;;;;;;;10.27;57.43;99359.80;234202;215;138903;-67
2023/10/16 12:12:19;;;;;;;12.00;2.70;;;;;;;10.40;57.08;99356.23;234154;215;137711;-70
2023/10/16 12:22:39;;;;;;;13.70;6.70;;;;;;;10.49;56.41;99345.14;232321;225;736278;-69
2023/10/16 12:27:42;;;;;;;9.90;3.20;;;;;;;10.52;56.04;99347.95;233644;219;137165;-65
2023/10/16 12:32:45;;;;;;;6.60;2.20;;;;;;;10.42;55.11;99359.67;233626;219;143972;-68
2023/10/16 12:37:55;;;;;;;4.40;2.10;;;;;;;10.31;55.28;99356.96;234093;217;139346;-69
2023/10/16 12:42:59;;;;;;;7.30;2.60;;;;;;;10.23;55.99;99355.73;234110;215;137150;-67
2023/10/16 12:48:03;;;;;;;5.30;2.20;;;;;;;10.17;57.23;99356.08;234078;217;146891;-66
2023/10/16 12:53:08;;;;;;;5.40;2.40;;;;;;;10.12;57.74;99355.67;234208;217;139223;-62
2023/10/16 12:58:12;;;;;;;9.20;2.70;;;;;;;10.10;58.09;99351.65;234055;217;136011;-60
2023/10/16 13:03:15;;;;;;;7.90;3.00;;;;;;;10.10;58.46;99343.69;234107;216;145022;-66
2023/10/16 13:08:22;;;;;;;5.70;2.50;;;;;;;10.15;58.78;99331.20;234099;216;140400;-61
2023/10/16 13:13:25;;;;;;;8.00;2.60;;;;;;;10.20;58.88;99335.17;234038;217;136649;-65
2023/10/16 13:18:28;;;;;;;5.40;2.90;;;;;;;10.25;58.65;99337.75;234041;217;146307;-63
2023/10/16 13:23:36;;;;;;;6.80;2.70;;;;;;;10.32;57.63;99335.91;234182;217;139237;-63
2023/10/16 13:28:48;;;;;;;7.40;2.80;;;;;;;10.34;56.91;99332.09;233972;217;137597;-66
2023/10/16 13:33:52;;;;;;;6.30;2.60;;;;;;;10.36;56.35;99328.08;234034;217;145527;-64
2023/10/16 13:38:55;;;;;;;7.80;2.90;;;;;;;10.36;56.27;99325.23;234073;214;140226;-66
2023/10/16 13:43:58;;;;;;;9.30;2.50;;;;;;;10.39;56.21;99316.93;234132;217;136649;-66
2023/10/16 13:49:24;;;;;;;;;;;;;;;10.35;55.90;99327.63;233904;218;147462;-66
2023/10/16 13:54:31;;;;;;;9.70;4.60;;;;;;;10.30;58.81;99351.81;234139;217;138797;-67
2023/10/16 13:59:34;;;;;;;6.80;2.70;;;;;;;10.16;59.56;99368.90;234175;218;136991;-66
2023/10/16 14:04:37;;;;;;;7.00;1.60;;;;;;;9.94;60.28;99368.67;234039;218;145863;-64
2023/10/16 14:09:42;;;;;;;4.10;1.80;;;;;;;9.75;60.95;99360.50;234074;217;140347;-65
2023/10/16 14:14:51;;;;;;;4.20;1.80;;;;;;;9.59;61.43;99354.61;234012;217;136891;-66
2023/10/16 14:19:55;;;;;;;5.10;1.70;;;;;;;9.49;61.79;99348.22;233982;217;145705;-65
2023/10/16 14:24:59;;;;;;;5.40;1.80;;;;;;;9.43;62.19;99343.43;234100;217;143032;-65
2023/10/16 14:30:02;;;;;;;4.70;1.70;;;;;;;9.38;62.36;99342.95;234035;217;136557;-63
2023/10/16 14:35:07;;;;;;;4.30;1.90;;;;;;;9.40;62.46;99337.91;234129;217;145764;-64
2023/10/16 14:40:15;;;;;;;4.50;1.80;;;;;;;9.42;62.73;99336.21;234058;217;139509;-65
2023/10/16 14:45:22;;;;;;;6.80;2.20;;;;;;;9.43;63.21;99341.65;234054;217;140940;-65
2023/10/16 14:50:32;;;;;;;5.20;2.20;;;;;;;9.46;63.26;99341.66;234080;216;147369;-65
2023/10/16 14:55:35;;;;;;;6.60;2.60;;;;;;;9.49;63.73;99344.15;234118;217;140409;-66
2023/10/16 15:00:42;;;;;;;7.60;2.60;;;;;;;9.56;63.47;99337.60;234075;217;136387;-68
2023/10/16 15:05:46;;;;;;;4.80;2.40;;;;;;;9.61;63.14;99333.05;234196;217;145405;-63
2023/10/16 15:10:51;;;;;;;6.60;2.50;;;;;;;9.68;62.92;99332.15;234159;217;138935;-67
2023/10/16 15:15:56;;;;;;;7.60;3.10;;;;;;;9.76;62.83;99332.83;234054;215;136533;-65
2023/10/16 15:21:01;;;;;;;8.30;3.30;;;;;;;9.83;62.23;99329.25;234062;216;144370;-66
2023/10/16 15:26:06;;;;;;;20.50;11.50;;;;;;;9.85;62.30;99325.39;234143;215;140370;-65
2023/10/16 15:31:11;;;;;;;11.10;5.20;;;;;;;9.90;62.88;99332.76;234185;215;137018;-67
2023/10/16 15:36:35;;;;;;;7.80;3.20;;;;;;;9.93;62.73;99343.04;234263;213;145535;-64
2023/10/16 15:41:39;;;;;;;8.70;3.30;;;;;;;9.92;62.71;99348.42;234365;215;138853;-67
2023/10/16 15:46:48;;;;;;;7.10;3.30;;;;;;;9.87;63.07;99352.58;234185;215;137900;-67
2023/10/16 15:51:52;;;;;;;9.00;4.00;;;;;;;9.82;63.46;99357.63;234189;215;145837;-67
2023/10/16 15:56:58;;;;;;;13.90;4.20;;;;;;;9.77;64.00;99370.13;234132;215;139440;-71
2023/10/16 16:02:01;;;;;;;12.00;4.40;;;;;;;9.74;64.17;99380.75;234150;215;137451;-70
2023/10/16 16:07:04;;;;;;;8.70;4.60;;;;;;;9.75;64.37;99388.87;234253;215;145548;-64
2023/10/16 16:12:08;;;;;;;8.10;4.70;;;;;;;9.78;64.63;99391.33;234433;214;138842;-69
2023/10/16 16:17:11;;;;;;;10.30;4.80;;;;;;;9.83;64.01;99386.27;234369;215;136160;-64
2023/10/16 16:22:14;;;;;;;7.60;4.50;;;;;;;9.80;63.59;99388.41;234274;215;145602;-63
2023/10/16 16:27:18;;;;;;;9.10;4.20;;;;;;;9.75;63.65;99397.34;234159;215;139516;-69
2023/10/16 16:32:21;;;;;;;8.00;4.20;;;;;;;9.67;63.60;99399.02;234222;213;137433;-67
2023/10/16 16:37:24;;;;;;;11.30;4.50;;;;;;;9.63;63.73;99400.81;234113;215;146424;-69
2023/10/16 16:42:28;;;;;;;8.10;4.70;;;;;;;9.58;64.00;99406.38;234180;215;138805;-69
2023/10/16 16:47:32;;;;;;;9.90;4.60;;;;;;;9.52;64.31;99408.33;234327;215;136524;-71
2023/10/16 16:52:35;;;;;;;9.40;4.50;;;;;;;9.50;64.53;99411.61;234205;215;145648;-64
2023/10/16 16:57:38;;;;;;;11.50;5.30;;;;;;;9.46;64.60;99414.09;234098;215;139973;-69
2023/10/16 17:02:42;;;;;;;484.90;341.90;;;;;;;9.45;64.87;99415.21;234243;215;137843;-67
2023/10/16 17:07:45;;;;;;;40.50;21.30;;;;;;;9.52;65.41;99421.04;234261;215;145891;-73
2023/10/16 17:12:48;;;;;;;15.90;8.20;;;;;;;9.52;65.08;99420.51;234235;215;138045;-69
2023/10/16 17:17:53;;;;;;;14.70;6.50;;;;;;;9.50;65.09;99426.48;234261;212;139321;-64
2023/10/16 17:22:57;;;;;;;11.50;5.30;;;;;;;9.48;65.18;99430.45;234410;215;146409;-68
2023/10/16 17:28:03;;;;;;;9.40;5.30;;;;;;;9.54;65.09;99436.55;234152;215;142320;-70
2023/10/16 17:33:06;;;;;;;12.10;6.40;;;;;;;9.61;65.01;99437.57;234192;215;139812;-63
2023/10/16 17:38:10;;;;;;;12.40;6.10;;;;;;;9.67;65.06;99440.10;234097;212;145825;-68
2023/10/16 17:43:16;;;;;;;13.60;7.00;;;;;;;9.69;64.87;99444.63;234261;213;139560;-64
2023/10/16 17:48:19;;;;;;;12.80;6.70;;;;;;;9.72;65.07;99440.72;234028;215;136790;-70
2023/10/16 17:53:24;;;;;;;12.40;7.10;;;;;;;9.73;65.03;99449.90;234229;215;145906;-62
2023/10/16 17:58:28;;;;;;;124.40;89.20;;;;;;;9.67;65.24;99454.08;234241;215;140045;-64
2023/10/16 18:03:31;;;;;;;18.50;11.80;;;;;;;9.76;65.54;99453.82;234153;215;136941;-70
2023/10/16 18:08:35;;;;;;;19.40;9.60;;;;;;;9.80;64.97;99454.31;234193;215;146637;-69
2023/10/16 18:15:18;;;;;;;15.50;8.00;;;;;;;9.77;64.89;99456.25;231675;224;698127;-68
2023/10/16 18:20:21;;;;;;;16.00;8.90;;;;;;;9.68;64.78;99459.52;234206;216;136666;-67
2023/10/16 18:25:25;;;;;;;18.60;8.50;;;;;;;9.67;64.93;99461.90;234557;214;144451;-65
2023/10/16 18:30:29;;;;;;;52.70;36.50;;;;;;;9.77;65.01;99468.83;234566;214;139391;-64
2023/10/16 18:35:32;;;;;;;14.90;8.60;;;;;;;9.84;64.63;99470.43;234784;214;136930;-69
2023/10/16 18:40:37;;;;;;;42.10;26.60;;;;;;;9.89;64.29;99476.35;234531;214;145228;-64
2023/10/16 18:45:42;;;;;;;16.00;9.40;;;;;;;10.04;63.49;99483.36;234662;214;139097;-70
2023/10/16 18:50:46;;;;;;;14.00;8.80;;;;;;;10.13;63.13;99485.19;234504;214;136805;-71
2023/10/16 18:55:51;;;;;;;16.40;8.40;;;;;;;10.12;62.67;99490.02;234599;214;145516;-72
2023/10/16 19:01:04;;;;;;;19.40;10.20;;;;;;;10.09;62.53;99488.58;234538;214;138779;-75
2023/10/16 19:06:08;;;;;;;20.20;10.00;;;;;;;10.08;62.64;99494.31;234516;214;137643;-65
2023/10/16 19:11:12;;;;;;;19.60;9.60;;;;;;;10.06;62.66;99498.67;234771;214;146498;-73
2023/10/16 19:16:15;;;;;;;21.10;10.10;;;;;;;10.03;62.72;99498.98;234247;214;139265;-72
2023/10/16 19:21:19;;;;;;;18.80;10.30;;;;;;;10.06;62.81;99504.02;234483;214;137034;-71
2023/10/16 19:26:23;;;;;;;21.00;10.70;;;;;;;10.05;63.21;99505.63;234458;214;146139;-71
2023/10/16 19:31:26;;;;;;;22.90;10.10;;;;;;;10.05;62.88;99509.70;234341;214;139432;-75
2023/10/16 19:36:29;;;;;;;17.30;10.30;;;;;;;10.04;62.84;99515.80;234491;214;137238;-76
2023/10/16 19:41:34;;;;;;;17.10;9.30;;;;;;;10.04;62.80;99518.61;234563;214;147131;-72
2023/10/16 19:46:38;;;;;;;20.00;8.40;;;;;;;10.05;62.63;99518.93;234338;215;138825;-66
2023/10/16 19:51:44;;;;;;;21.30;9.50;;;;;;;10.04;62.64;99519.88;234375;214;137416;-72
2023/10/16 20:21:11;;;;;;;17.50;9.70;;;;;;;10.05;62.61;99530.61;232703;224;725178;-70
2023/10/16 20:26:17;;;;;;;17.20;9.00;;;;;;;10.04;62.32;99534.77;234248;216;136920;-73
2023/10/16 20:31:24;;;;;;;12.90;8.80;;;;;;;10.06;62.21;99535.59;234240;216;143890;-71
2023/10/16 20:36:28;;;;;;;17.20;8.50;;;;;;;10.06;62.05;99534.30;234173;216;138827;-70
2023/10/16 20:41:32;;;;;;;17.80;9.70;;;;;;;10.06;62.08;99539.29;234355;216;137239;-70
2023/10/16 20:46:37;;;;;;;19.50;9.90;;;;;;;10.06;62.12;99547.10;234215;216;145833;-72
2023/10/16 20:51:41;;;;;;;18.90;9.70;;;;;;;10.05;62.12;99551.05;234211;216;138871;-71
2023/10/16 20:56:45;;;;;;;21.60;10.00;;;;;;;10.04;62.15;99547.52;234181;216;136299;-73
2023/10/16 21:01:48;;;;;;;19.00;9.80;;;;;;;10.02;62.35;99547.64;234156;216;144919;-69
2023/10/16 21:06:53;;;;;;;18.20;10.00;;;;;;;10.01;62.37;99553.21;234266;216;138867;-73
2023/10/16 21:11:56;;;;;;;22.20;11.30;;;;;;;9.98;62.36;99554.39;234347;216;137543;-72
2023/10/16 21:16:59;;;;;;;21.60;11.10;;;;;;;10.02;62.26;99552.61;234673;214;146709;-77
2023/10/16 21:22:02;;;;;;;20.10;11.50;;;;;;;10.03;62.23;99550.63;234667;214;141287;-71
2023/10/16 21:27:06;;;;;;;21.60;12.30;;;;;;;10.01;62.24;99550.86;234631;214;137957;-70
2023/10/16 21:32:09;;;;;;;21.10;12.10;;;;;;;10.00;62.29;99547.77;234664;214;145500;-71
2023/10/16 21:37:14;;;;;;;20.50;11.90;;;;;;;9.96;62.24;99551.67;234657;214;138787;-67
2023/10/16 21:42:17;;;;;;;22.60;11.30;;;;;;;9.97;62.40;99552.68;234713;214;136316;-70
2023/10/16 21:47:20;;;;;;;18.50;12.00;;;;;;;9.95;62.49;99554.55;234896;214;147085;-71
2023/10/16 21:52:23;;;;;;;19.00;12.30;;;;;;;9.95;62.40;99553.30;234579;214;138718;-69
2023/10/16 21:57:27;;;;;;;20.10;11.40;;;;;;;9.92;62.53;99555.56;234701;214;136669;-70
2023/10/16 22:02:30;;;;;;;21.40;11.50;;;;;;;9.92;62.54;99555.95;234567;214;146642;-70
2023/10/16 22:07:33;;;;;;;21.20;12.00;;;;;;;9.90;62.78;99554.10;234763;214;139006;-70
2023/10/16 22:12:37;;;;;;;20.90;12.40;;;;;;;9.89;63.02;99554.36;234866;212;137803;-71
2023/10/16 22:17:40;;;;;;;20.40;12.20;;;;;;;9.88;63.04;99558.62;234836;214;145810;-71
2023/10/16 22:22:45;;;;;;;19.50;12.20;;;;;;;9.89;63.39;99555.73;234676;214;138680;-73
2023/10/16 22:27:51;;;;;;;23.30;12.40;;;;;;;9.88;63.51;99559.88;234638;212;136880;-68
2023/10/16 22:32:55;;;;;;;22.30;11.70;;;;;;;9.90;63.49;99555.34;234686;212;146598;-75
2023/10/16 22:37:58;;;;;;;21.70;12.40;;;;;;;9.96;63.14;99552.55;234742;214;138916;-73
2023/10/16 22:43:01;;;;;;;23.90;12.20;;;;;;;10.00;63.09;99553.98;234637;214;137314;-72
2023/10/16 22:48:05;;;;;;;21.10;12.10;;;;;;;10.02;63.23;99555.64;234871;214;145967;-68
2023/10/16 22:53:08;;;;;;;20.10;12.20;;;;;;;10.00;62.95;99551.48;234934;214;140184;-72
2023/10/16 22:58:13;;;;;;;24.10;11.90;;;;;;;9.98;62.93;99552.79;234695;214;137638;-70
2023/10/16 23:03:16;;;;;;;20.40;11.50;;;;;;;9.96;63.00;99554.31;234677;215;145898;-68
2023/10/16 23:08:19;;;;;;;21.80;12.10;;;;;;;9.93;63.12;99557.83;234991;214;139203;-69
2023/10/16 23:13:25;;;;;;;17.60;11.60;;;;;;;9.90;63.11;99555.16;235071;214;137645;-69
2023/10/16 23:18:28;;;;;;;23.70;12.00;;;;;;;9.86;63.36;99557.88;234900;214;148026;-70
2023/10/16 23:23:32;;;;;;;19.30;11.80;;;;;;;9.84;63.52;99552.48;234407;215;138557;-71
2023/10/16 23:28:38;;;;;;;23.70;11.60;;;;;;;9.83;63.49;99546.14;234513;215;137069;-67
2023/10/16 23:34:04;;;;;;;19.80;12.20;;;;;;;9.80;63.36;99542.36;234574;215;145513;-71
2023/10/16 23:39:14;;;;;;;23.60;11.80;;;;;;;9.79;63.52;99542.80;234529;215;140305;-68
2023/10/16 23:44:21;;;;;;;19.10;10.90;;;;;;;9.76;63.69;99543.14;234570;215;136969;-72
2023/10/16 23:49:29;;;;;;;21.10;11.60;;;;;;;9.76;63.50;99539.41;234518;215;145602;-70
2023/10/16 23:55:16;;;;;;;20.60;11.30;;;;;;;9.75;63.48;99536.09;233741;215;138222;-66
